createdAt,value
2018-05-27T00:01:42.595Z,56.70
2018-05-27T00:04:08.799Z,56.80
2018-05-27T00:06:35.015Z,56.70
2018-05-27T00:09:01.243Z,55.90
2018-05-27T00:11:34.507Z,55.80
2018-05-27T00:14:00.714Z,55.90
2018-05-27T00:16:26.931Z,55.60
2018-05-27T00:18:53.177Z,55.90
2018-05-27T00:21:19.350Z,55.90
2018-05-27T00:23:45.557Z,55.90
2018-05-27T00:26:11.739Z,56.00
2018-05-27T00:28:37.945Z,55.80
2018-05-27T00:31:04.167Z,55.70
2018-05-27T00:33:31.122Z,55.80
2018-05-27T00:35:57.345Z,55.80
2018-05-27T00:38:23.525Z,56.00
2018-05-27T00:40:49.738Z,56.00
2018-05-27T00:43:15.925Z,55.70
2018-05-27T00:45:42.141Z,55.90
2018-05-27T00:48:09.058Z,56.20
2018-05-27T00:50:35.261Z,56.10
2018-05-27T00:53:01.609Z,56.10
2018-05-27T00:55:27.822Z,56.20
2018-05-27T00:57:54.024Z,56.10
2018-05-27T01:00:20.227Z,56.40
2018-05-27T01:02:46.405Z,56.70
2018-05-27T01:05:12.649Z,56.70
2018-05-27T01:07:38.831Z,56.70
2018-05-27T01:10:05.038Z,56.90
2018-05-27T01:12:31.973Z,56.90
2018-05-27T01:14:58.373Z,56.90
2018-05-27T01:17:24.572Z,57.00
2018-05-27T01:19:50.796Z,57.40
2018-05-27T01:22:16.989Z,57.30
2018-05-27T01:24:43.226Z,57.50
2018-05-27T01:27:09.423Z,57.80
2018-05-27T01:29:35.632Z,57.90
2018-05-27T01:32:01.829Z,58.00
2018-05-27T01:34:28.042Z,57.90
2018-05-27T01:36:54.251Z,58.00
2018-05-27T01:39:20.442Z,57.80
2018-05-27T01:41:46.641Z,57.90
2018-05-27T01:44:12.809Z,58.40
2018-05-27T01:46:39.066Z,58.30
2018-05-27T01:49:06.043Z,58.60
2018-05-27T01:51:32.282Z,58.50
2018-05-27T01:53:58.467Z,58.60
2018-05-27T01:56:24.661Z,58.80
2018-05-27T01:58:50.841Z,58.80
2018-05-27T02:01:17.038Z,58.70
2018-05-27T02:03:43.969Z,59.10
2018-05-27T02:06:10.175Z,59.10
2018-05-27T02:08:36.373Z,59.30
2018-05-27T02:11:02.601Z,59.10
2018-05-27T02:13:28.770Z,59.10
2018-05-27T02:15:54.977Z,59.50
2018-05-27T02:18:21.211Z,59.30
2018-05-27T02:20:47.411Z,59.20
2018-05-27T02:23:13.636Z,59.00
2018-05-27T02:25:39.829Z,59.20
2018-05-27T02:28:06.058Z,59.90
2018-05-27T02:30:32.288Z,60.30
2018-05-27T02:32:58.493Z,60.90
2018-05-27T02:35:24.702Z,60.60
2018-05-27T02:37:50.893Z,60.30
2018-05-27T02:40:17.085Z,60.90
2018-05-27T02:42:44.015Z,60.30
2018-05-27T02:45:10.228Z,60.30
2018-05-27T02:47:36.411Z,60.00
2018-05-27T02:50:02.632Z,59.80
2018-05-27T02:52:28.828Z,60.70
2018-05-27T02:54:55.005Z,60.90
2018-05-27T02:57:21.213Z,61.10
2018-05-27T02:59:47.443Z,60.60
2018-05-27T03:02:13.649Z,61.30
2018-05-27T03:04:40.578Z,62.50
2018-05-27T03:07:06.793Z,62.40
2018-05-27T03:09:32.979Z,63.10
2018-05-27T03:11:59.218Z,62.70
2018-05-27T03:14:25.406Z,63.00
2018-05-27T03:16:52.364Z,62.80
2018-05-27T03:19:18.551Z,62.80
2018-05-27T03:21:44.758Z,62.70
2018-05-27T03:24:10.934Z,62.10
2018-05-27T03:26:37.907Z,61.30
2018-05-27T03:29:04.087Z,61.20
2018-05-27T03:31:30.300Z,61.50
2018-05-27T03:33:56.500Z,61.80
2018-05-27T03:36:22.701Z,61.70
2018-05-27T03:38:48.872Z,61.60
2018-05-27T03:41:15.085Z,61.30
2018-05-27T03:43:41.274Z,61.10
2018-05-27T03:46:07.469Z,60.60
2018-05-27T03:48:33.632Z,60.20
2018-05-27T03:50:59.821Z,61.10
2018-05-27T03:53:26.037Z,60.40
2018-05-27T03:55:52.265Z,61.10
2018-05-27T03:58:18.446Z,60.90
2018-05-27T04:00:44.637Z,61.00
2018-05-27T04:03:10.805Z,61.80
2018-05-27T04:05:49.106Z,62.30
2018-05-27T04:08:27.481Z,61.20
2018-05-27T04:10:53.693Z,61.50
2018-05-27T04:13:19.862Z,61.10
2018-05-27T04:15:46.906Z,62.00
2018-05-27T04:18:13.825Z,61.40
2018-05-27T04:20:40.072Z,61.40
2018-05-27T04:23:06.264Z,61.70
2018-05-27T04:25:32.459Z,62.20
2018-05-27T04:27:58.662Z,62.20
2018-05-27T04:30:25.582Z,63.00
2018-05-27T04:32:51.786Z,62.90
2018-05-27T04:35:18.041Z,62.30
2018-05-27T04:37:44.238Z,61.90
2018-05-27T04:40:10.419Z,62.70
2018-05-27T04:42:37.362Z,61.90
2018-05-27T04:45:03.566Z,61.90
2018-05-27T04:47:29.761Z,62.10
2018-05-27T04:49:55.943Z,62.10
2018-05-27T04:52:22.929Z,61.50
2018-05-27T04:54:49.125Z,61.50
2018-05-27T04:57:15.337Z,62.00
2018-05-27T04:59:42.285Z,61.80
2018-05-27T05:02:08.505Z,61.80
2018-05-27T05:04:35.422Z,61.80
2018-05-27T05:07:01.626Z,61.80
2018-05-27T05:09:27.832Z,61.70
2018-05-27T05:11:54.042Z,62.20
2018-05-27T05:14:20.222Z,62.90
2018-05-27T05:16:46.421Z,63.20
2018-05-27T05:19:12.797Z,61.70
2018-05-27T05:21:38.998Z,61.40
2018-05-27T05:24:05.185Z,62.10
2018-05-27T05:26:31.495Z,62.50
2018-05-27T05:28:58.426Z,60.00
2018-05-27T05:31:24.633Z,60.00
2018-05-27T05:33:50.837Z,60.30
2018-05-27T05:36:17.046Z,60.50
2018-05-27T05:38:43.993Z,59.40
2018-05-27T05:41:10.157Z,59.40
2018-05-27T05:43:36.390Z,59.50
2018-05-27T05:46:02.604Z,59.60
2018-05-27T05:48:28.819Z,58.90
2018-05-27T05:50:54.993Z,57.20
2018-05-27T05:53:21.203Z,56.60
2018-05-27T05:55:47.450Z,57.30
2018-05-27T05:58:13.622Z,58.30
2018-05-27T06:00:39.833Z,57.60
2018-05-27T06:03:06.038Z,57.30
2018-05-27T06:05:32.219Z,57.40
2018-05-27T06:07:58.430Z,58.60
2018-05-27T06:10:24.624Z,57.70
2018-05-27T06:12:50.827Z,58.00
2018-05-27T06:15:17.034Z,58.00
2018-05-27T06:17:43.258Z,59.10
2018-05-27T06:20:09.433Z,58.80
2018-05-27T06:22:36.410Z,58.80
2018-05-27T06:25:02.638Z,58.70
2018-05-27T06:27:28.838Z,58.40
2018-05-27T06:29:55.019Z,59.00
2018-05-27T06:32:21.251Z,58.30
2018-05-27T06:34:47.454Z,58.50
2018-05-27T06:37:13.708Z,57.70
2018-05-27T06:39:39.878Z,58.20
2018-05-27T06:42:06.835Z,58.10
2018-05-27T06:44:33.018Z,58.10
2018-05-27T06:46:59.206Z,58.00
2018-05-27T06:49:25.459Z,58.40
2018-05-27T06:51:51.626Z,57.50
2018-05-27T06:54:18.577Z,56.80
2018-05-27T06:56:45.617Z,56.30
2018-05-27T06:59:12.549Z,55.60
2018-05-27T07:01:38.739Z,55.60
2018-05-27T07:04:04.945Z,57.10
2018-05-27T07:06:31.117Z,58.10
2018-05-27T07:08:57.343Z,56.70
2018-05-27T07:11:23.523Z,56.80
2018-05-27T07:13:49.753Z,55.80
2018-05-27T07:16:15.922Z,55.10
2018-05-27T07:18:42.229Z,56.10
2018-05-27T07:21:08.420Z,56.00
2018-05-27T07:23:34.654Z,56.70
2018-05-27T07:26:00.865Z,55.90
2018-05-27T07:28:27.062Z,55.70
2018-05-27T07:30:53.244Z,57.00
2018-05-27T07:33:19.463Z,55.50
2018-05-27T07:35:45.651Z,55.40
2018-05-27T07:38:11.849Z,56.40
2018-05-27T07:40:38.078Z,55.40
2018-05-27T07:43:04.452Z,55.00
2018-05-27T07:45:30.666Z,55.50
2018-05-27T07:47:56.915Z,55.30
2018-05-27T07:50:23.120Z,54.90
2018-05-27T07:52:49.345Z,55.30
2018-05-27T07:55:15.553Z,55.20
2018-05-27T07:57:41.733Z,55.30
2018-05-27T08:00:07.939Z,54.10
2018-05-27T08:02:34.178Z,55.10
2018-05-27T08:05:00.400Z,54.10
2018-05-27T08:07:26.606Z,53.60
2018-05-27T08:09:52.821Z,54.60
2018-05-27T08:12:19.018Z,53.00
2018-05-27T08:14:45.295Z,54.20
2018-05-27T08:17:11.518Z,52.90
2018-05-27T08:19:37.718Z,53.50
2018-05-27T08:22:03.926Z,52.00
2018-05-27T08:24:30.121Z,51.50
2018-05-27T08:26:57.070Z,51.60
2018-05-27T08:29:24.044Z,51.70
2018-05-27T08:31:50.258Z,51.70
2018-05-27T08:34:16.491Z,51.10
2018-05-27T08:36:42.692Z,52.30
2018-05-27T08:39:08.892Z,52.20
2018-05-27T08:41:35.326Z,51.00
2018-05-27T08:44:01.549Z,51.00
2018-05-27T08:46:27.753Z,49.30
2018-05-27T08:48:54.027Z,49.50
2018-05-27T08:51:20.953Z,49.10
2018-05-27T08:53:47.177Z,49.10
2018-05-27T08:56:13.374Z,47.60
2018-05-27T08:58:39.628Z,49.40
2018-05-27T09:01:05.817Z,49.10
2018-05-27T09:03:32.046Z,49.10
2018-05-27T09:05:58.278Z,48.50
2018-05-27T09:08:24.470Z,48.30
2018-05-27T09:10:51.413Z,49.40
2018-05-27T09:13:17.619Z,49.40
2018-05-27T09:15:43.845Z,50.00
2018-05-27T09:18:10.093Z,47.30
2018-05-27T09:20:36.329Z,47.90
2018-05-27T09:23:02.538Z,49.30
2018-05-27T09:25:28.759Z,48.70
2018-05-27T09:27:54.967Z,47.60
2018-05-27T09:30:21.169Z,46.90
2018-05-27T09:32:47.402Z,47.20
2018-05-27T09:35:13.661Z,47.10
2018-05-27T09:37:39.871Z,47.60
2018-05-27T09:40:06.145Z,46.30
2018-05-27T09:42:32.361Z,46.20
2018-05-27T09:44:58.621Z,47.10
2018-05-27T09:47:24.781Z,46.70
2018-05-27T09:49:51.023Z,45.90
2018-05-27T09:52:17.241Z,46.90
2018-05-27T09:54:43.465Z,47.20
2018-05-27T09:57:09.679Z,45.20
2018-05-27T09:59:35.910Z,46.30
2018-05-27T10:02:02.119Z,44.90
2018-05-27T10:04:28.347Z,44.90
2018-05-27T10:06:54.717Z,44.50
2018-05-27T10:09:20.969Z,42.80
2018-05-27T10:11:47.166Z,43.80
2018-05-27T10:14:13.469Z,46.00
2018-05-27T10:16:39.725Z,42.40
2018-05-27T10:19:06.024Z,43.20
2018-05-27T10:21:32.314Z,42.10
2018-05-27T10:23:58.595Z,42.60
2018-05-27T10:26:24.906Z,42.70
2018-05-27T10:28:51.093Z,42.10
2018-05-27T10:31:17.332Z,40.10
2018-05-27T10:33:44.282Z,40.80
2018-05-27T10:36:10.540Z,40.70
2018-05-27T10:38:37.761Z,39.90
2018-05-27T10:41:04.873Z,42.70
2018-05-27T10:43:31.069Z,42.70
2018-05-27T10:45:57.287Z,40.20
2018-05-27T10:48:23.487Z,39.30
2018-05-27T10:50:49.913Z,41.60
2018-05-27T10:53:16.882Z,40.50
2018-05-27T10:55:43.150Z,40.50
2018-05-27T10:58:09.444Z,42.00
2018-05-27T11:00:35.741Z,39.50
2018-05-27T11:03:02.701Z,41.90
2018-05-27T11:05:29.722Z,41.60
2018-05-27T11:07:55.922Z,41.60
2018-05-27T11:10:22.161Z,39.60
2018-05-27T11:12:48.363Z,39.60
2018-05-27T11:15:14.603Z,40.70
2018-05-27T11:17:40.825Z,38.80
2018-05-27T11:20:07.042Z,39.50
2018-05-27T11:22:33.261Z,40.30
2018-05-27T11:24:59.893Z,37.80
2018-05-27T11:27:26.241Z,36.70
2018-05-27T11:29:52.535Z,38.30
2018-05-27T11:32:18.798Z,36.50
2018-05-27T11:34:45.021Z,35.90
2018-05-27T11:37:11.288Z,36.20
2018-05-27T11:39:37.490Z,35.40
2018-05-27T11:42:03.726Z,35.60
2018-05-27T11:44:29.978Z,35.70
2018-05-27T11:46:56.202Z,37.60
2018-05-27T11:49:22.425Z,36.90
2018-05-27T11:51:48.692Z,37.50
2018-05-27T11:54:15.746Z,35.30
2018-05-27T11:56:41.982Z,35.90
2018-05-27T11:59:08.943Z,36.60
2018-05-27T12:01:35.493Z,36.50
2018-05-27T12:04:01.807Z,36.80
2018-05-27T12:06:28.034Z,36.30
2018-05-27T12:08:54.231Z,37.60
2018-05-27T12:11:20.476Z,38.00
2018-05-27T12:13:46.671Z,35.20
2018-05-27T12:16:12.917Z,37.10
2018-05-27T12:18:39.122Z,36.60
2018-05-27T12:21:05.379Z,37.20
2018-05-27T12:23:31.651Z,36.10
2018-05-27T12:25:57.938Z,36.80
2018-05-27T12:28:24.147Z,35.60
2018-05-27T12:30:53.781Z,36.40
2018-05-27T12:33:20.010Z,36.90
2018-05-27T12:35:46.262Z,37.00
2018-05-27T12:38:12.465Z,36.70
2018-05-27T12:40:38.937Z,37.30
2018-05-27T12:43:05.141Z,37.70
2018-05-27T12:45:31.355Z,37.70
2018-05-27T12:47:57.594Z,35.90
2018-05-27T12:50:23.785Z,35.60
2018-05-27T12:52:50.766Z,36.20
2018-05-27T12:55:17.024Z,36.20
2018-05-27T12:57:43.246Z,35.80
2018-05-27T13:00:09.450Z,36.20
2018-05-27T13:02:35.677Z,35.20
2018-05-27T13:05:01.919Z,34.70
2018-05-27T13:07:28.246Z,35.50
2018-05-27T13:09:54.398Z,36.90
2018-05-27T13:12:20.692Z,35.80
2018-05-27T13:14:46.945Z,36.50
2018-05-27T13:17:13.158Z,36.60
2018-05-27T13:19:39.353Z,36.70
2018-05-27T13:22:05.582Z,36.70
2018-05-27T13:24:31.773Z,37.40
2018-05-27T13:26:57.992Z,37.30
2018-05-27T13:29:24.837Z,39.40
2018-05-27T13:31:51.057Z,38.30
2018-05-27T13:34:17.850Z,40.00
2018-05-27T13:36:44.053Z,40.20
2018-05-27T13:39:10.257Z,39.20
2018-05-27T13:41:36.494Z,41.40
2018-05-27T13:44:02.797Z,40.20
2018-05-27T13:46:29.019Z,40.80
2018-05-27T13:48:55.310Z,41.40
2018-05-27T13:51:21.541Z,43.00
2018-05-27T13:53:47.806Z,42.80
2018-05-27T13:56:14.051Z,44.80
2018-05-27T13:58:40.283Z,47.10
2018-05-27T14:01:06.701Z,49.00
2018-05-27T14:03:32.939Z,50.30
2018-05-27T14:05:59.152Z,52.00
2018-05-27T14:08:25.402Z,55.40
2018-05-27T14:10:51.643Z,57.60
2018-05-27T14:13:17.908Z,59.30
2018-05-27T14:15:44.089Z,59.60
2018-05-27T14:18:10.335Z,56.90
2018-05-27T14:20:37.288Z,60.50
2018-05-27T14:23:03.584Z,60.50
2018-05-27T14:25:29.778Z,62.30
2018-05-27T14:27:56.116Z,63.00
2018-05-27T14:30:23.087Z,63.80
2018-05-27T14:32:49.300Z,63.80
2018-05-27T14:35:15.519Z,64.00
2018-05-27T14:37:41.714Z,67.10
2018-05-27T14:40:07.961Z,66.90
2018-05-27T14:42:34.173Z,68.30
2018-05-27T14:45:00.353Z,67.90
2018-05-27T14:47:26.562Z,67.50
2018-05-27T14:49:52.757Z,69.90
2018-05-27T14:52:19.047Z,68.60
2018-05-27T14:54:46.528Z,68.90
2018-05-27T14:57:13.646Z,69.50
2018-05-27T14:59:39.838Z,71.10
2018-05-27T15:02:06.101Z,71.10
2018-05-27T15:04:32.296Z,72.80
2018-05-27T15:06:58.511Z,71.20
2018-05-27T15:09:24.739Z,71.40
2018-05-27T15:11:50.974Z,72.00
2018-05-27T15:14:17.174Z,71.80
2018-05-27T15:16:43.374Z,72.20
2018-05-27T15:19:09.602Z,71.70
2018-05-27T15:21:36.102Z,74.70
2018-05-27T15:24:02.350Z,75.10
2018-05-27T15:26:28.661Z,74.80
2018-05-27T15:28:54.874Z,75.30
2018-05-27T15:31:21.103Z,75.50
2018-05-27T15:33:47.324Z,73.60
2018-05-27T15:36:13.537Z,75.30
2018-05-27T15:38:39.779Z,76.60
2018-05-27T15:41:05.990Z,76.60
2018-05-27T15:43:32.195Z,76.60
2018-05-27T15:45:58.394Z,77.10
2018-05-27T15:48:24.788Z,76.80
2018-05-27T15:50:51.785Z,77.90
2018-05-27T15:53:18.041Z,78.00
2018-05-27T15:55:44.233Z,78.00
2018-05-27T15:58:10.461Z,76.80
2018-05-27T16:00:36.683Z,72.20
2018-05-27T16:03:02.947Z,73.50
2018-05-27T16:05:29.364Z,72.60
2018-05-27T16:07:56.383Z,76.50
2018-05-27T16:10:22.584Z,76.40
2018-05-27T16:12:48.804Z,70.70
2018-05-27T16:15:14.982Z,75.00
2018-05-27T16:17:41.217Z,76.30
2018-05-27T16:20:07.525Z,76.20
2018-05-27T16:22:33.745Z,76.90
2018-05-27T16:24:59.985Z,76.20
2018-05-27T16:27:26.714Z,76.00
2018-05-27T16:29:52.925Z,75.30
2018-05-27T16:32:19.140Z,76.10
2018-05-27T16:34:45.385Z,78.40
2018-05-27T16:37:11.614Z,79.40
2018-05-27T16:39:37.841Z,81.70
2018-05-27T16:42:04.052Z,81.90
2018-05-27T16:44:30.283Z,82.40
2018-05-27T16:46:56.501Z,79.40
2018-05-27T16:49:22.791Z,78.50
2018-05-27T16:51:50.298Z,75.10
2018-05-27T16:54:16.501Z,76.60
2018-05-27T16:56:42.688Z,77.90
2018-05-27T16:59:08.959Z,80.10
2018-05-27T17:01:35.155Z,81.10
2018-05-27T17:04:01.458Z,80.80
2018-05-27T17:06:27.666Z,81.60
2018-05-27T17:08:54.102Z,80.30
2018-05-27T17:11:20.306Z,82.40
2018-05-27T17:13:46.537Z,81.10
2018-05-27T17:16:12.834Z,80.00
2018-05-27T17:18:39.067Z,79.00
2018-05-27T17:21:05.270Z,80.00
2018-05-27T17:23:31.574Z,80.30
2018-05-27T17:25:57.823Z,80.40
2018-05-27T17:28:24.023Z,81.00
2018-05-27T17:30:50.214Z,81.10
2018-05-27T17:33:17.254Z,80.50
2018-05-27T17:35:43.483Z,80.40
2018-05-27T17:38:09.733Z,80.70
2018-05-27T17:40:36.010Z,80.60
2018-05-27T17:43:02.341Z,80.80
2018-05-27T17:45:28.582Z,81.00
2018-05-27T17:48:06.869Z,81.00
2018-05-27T17:50:33.101Z,81.10
2018-05-27T17:53:00.015Z,81.40
2018-05-27T17:55:26.286Z,80.80
2018-05-27T17:57:52.507Z,80.30
2018-05-27T18:00:19.626Z,80.00
2018-05-27T18:02:45.818Z,79.80
2018-05-27T18:05:12.478Z,79.70
2018-05-27T18:07:38.682Z,79.00
2018-05-27T18:10:04.982Z,79.00
2018-05-27T18:12:31.403Z,78.90
2018-05-27T18:14:57.709Z,79.20
2018-05-27T18:17:23.911Z,79.30
2018-05-27T18:19:50.202Z,77.50
2018-05-27T18:22:16.534Z,77.00
2018-05-27T18:24:42.810Z,78.00
2018-05-27T18:27:09.002Z,79.10
2018-05-27T18:29:35.201Z,80.00
2018-05-27T18:32:01.562Z,79.80
2018-05-27T18:34:27.856Z,80.20
2018-05-27T18:36:54.121Z,80.80
2018-05-27T18:39:20.363Z,81.00
2018-05-27T18:41:47.302Z,80.80
2018-05-27T18:44:13.509Z,80.80
2018-05-27T18:46:39.718Z,80.10
2018-05-27T18:49:06.986Z,79.30
2018-05-27T18:51:33.322Z,78.00
2018-05-27T18:53:59.510Z,78.40
2018-05-27T18:56:25.706Z,78.70
2018-05-27T18:58:51.920Z,79.20
2018-05-27T19:01:18.149Z,79.80
2018-05-27T19:03:44.360Z,80.60
2018-05-27T19:06:10.614Z,80.20
2018-05-27T19:08:36.813Z,81.30
2018-05-27T19:11:03.051Z,82.10
2018-05-27T19:13:29.235Z,82.50
2018-05-27T19:15:55.497Z,83.00
2018-05-27T19:18:21.697Z,83.40
2018-05-27T19:20:48.011Z,83.60
2018-05-27T19:23:14.222Z,84.00
2018-05-27T19:25:40.477Z,84.50
2018-05-27T19:28:06.749Z,84.30
2018-05-27T19:30:33.830Z,82.60
2018-05-27T19:33:00.070Z,82.60
2018-05-27T19:35:26.321Z,82.70
2018-05-27T19:37:52.726Z,83.70
2018-05-27T19:40:18.988Z,83.60
2018-05-27T19:42:45.281Z,84.40
2018-05-27T19:45:11.541Z,84.40
2018-05-27T19:47:37.841Z,84.60
2018-05-27T19:50:04.172Z,85.00
2018-05-27T19:52:30.367Z,84.90
2018-05-27T19:54:56.602Z,85.50
2018-05-27T19:57:22.820Z,85.50
2018-05-27T19:59:50.794Z,85.40
2018-05-27T20:02:17.942Z,84.40
2018-05-27T20:04:44.157Z,84.30
2018-05-27T20:07:11.794Z,86.50
2018-05-27T20:09:38.067Z,85.70
2018-05-27T20:12:04.651Z,86.00
2018-05-27T20:14:30.942Z,85.00
2018-05-27T20:16:57.335Z,84.70
2018-05-27T20:19:23.703Z,85.20
2018-05-27T20:21:50.557Z,85.60
2018-05-27T20:24:16.948Z,85.90
2018-05-27T20:26:43.505Z,86.40
2018-05-27T20:29:09.757Z,86.60
2018-05-27T20:31:36.092Z,87.10
2018-05-27T20:34:02.714Z,87.40
2018-05-27T20:36:29.098Z,87.40
2018-05-27T20:38:55.684Z,87.70
2018-05-27T20:41:22.135Z,88.10
2018-05-27T20:43:48.441Z,88.30
2018-05-27T20:46:14.796Z,87.90
2018-05-27T20:48:41.001Z,88.20
2018-05-27T20:51:07.558Z,88.20
2018-05-27T20:53:34.040Z,88.40
2018-05-27T20:56:00.454Z,88.50
2018-05-27T20:58:26.729Z,88.30
2018-05-27T21:00:52.930Z,88.80
2018-05-27T21:03:19.877Z,89.10
2018-05-27T21:05:46.121Z,89.10
2018-05-27T21:08:12.305Z,89.30
2018-05-27T21:10:38.514Z,89.40
2018-05-27T21:13:04.723Z,89.80
2018-05-27T21:15:31.007Z,90.00
2018-05-27T21:17:57.998Z,90.00
2018-05-27T21:20:24.201Z,90.00
2018-05-27T21:22:51.159Z,90.30
2018-05-27T21:25:17.405Z,90.20
2018-05-27T21:27:44.374Z,90.40
2018-05-27T21:30:10.577Z,90.30
2018-05-27T21:32:36.784Z,90.30
2018-05-27T21:35:03.039Z,90.00
2018-05-27T21:37:29.302Z,90.00
2018-05-27T21:39:55.551Z,89.70
2018-05-27T21:42:21.837Z,90.10
2018-05-27T21:44:48.885Z,90.30
2018-05-27T21:47:15.161Z,90.60
2018-05-27T21:49:41.362Z,90.70
2018-05-27T21:52:07.585Z,90.90
2018-05-27T21:54:33.822Z,91.00
2018-05-27T21:57:00.058Z,91.00
2018-05-27T21:59:26.242Z,91.10
2018-05-27T22:01:53.230Z,91.30
2018-05-27T22:04:20.166Z,91.30
2018-05-27T22:06:47.133Z,91.30
2018-05-27T22:09:13.353Z,91.20
2018-05-27T22:11:39.565Z,91.10
2018-05-27T22:14:05.945Z,91.10
2018-05-27T22:16:32.158Z,91.10
2018-05-27T22:18:58.336Z,91.00
2018-05-27T22:21:24.562Z,91.10
2018-05-27T22:23:50.754Z,91.10
2018-05-27T22:26:17.184Z,91.30
2018-05-27T22:28:43.385Z,91.40
2018-05-27T22:31:09.582Z,91.50
2018-05-27T22:33:35.806Z,91.70
2018-05-27T22:36:01.994Z,91.80
2018-05-27T22:38:28.224Z,91.90
2018-05-27T22:40:54.421Z,92.00
2018-05-27T22:43:21.394Z,92.00
2018-05-27T22:45:47.585Z,92.10
2018-05-27T22:48:13.793Z,92.20
2018-05-27T22:50:39.973Z,92.30
2018-05-27T22:53:06.190Z,92.30
2018-05-27T22:55:32.353Z,92.30
2018-05-27T22:57:58.581Z,92.50
2018-05-27T23:00:24.762Z,92.50
2018-05-27T23:02:50.946Z,92.60
2018-05-27T23:05:17.239Z,92.60
2018-05-27T23:07:43.439Z,92.60
2018-05-27T23:10:09.613Z,92.60
2018-05-27T23:12:35.813Z,92.50
2018-05-27T23:15:02.022Z,92.50
2018-05-27T23:17:28.221Z,92.50
2018-05-27T23:19:54.422Z,92.50
2018-05-27T23:22:20.646Z,92.50
2018-05-27T23:24:46.828Z,92.80
2018-05-27T23:27:13.046Z,92.50
2018-05-27T23:29:39.986Z,92.60
2018-05-27T23:32:06.177Z,92.50
2018-05-27T23:34:32.367Z,92.60
2018-05-27T23:36:58.573Z,92.60
2018-05-27T23:39:25.508Z,92.30
2018-05-27T23:41:52.424Z,92.20
2018-05-27T23:44:18.617Z,92.20
2018-05-27T23:46:44.981Z,92.20
2018-05-27T23:49:11.190Z,92.20
2018-05-27T23:51:37.380Z,92.30
2018-05-27T23:54:03.595Z,92.30
2018-05-27T23:56:29.782Z,92.30
2018-05-27T23:58:55.989Z,92.30
